Time;durP1;ratioP1;P1;durP2;ratioP2;P2;SDS_P1;SDS_P2;PMS_P1;PMS_P2;Temp;Humidity;BMP_temperature;BMP_pressure;BME280_temperature;BME280_humidity;BME280_pressure;Samples;Min_cycle;Max_cycle;Signal;HPM_P1;HPM_P2
2023/01/16 00:00:41;;;;;;;;;;;21.30;37.50;;;;;;476042;250;2152;-43
2023/01/16 00:02:42;;;;;;;;;;;21.20;37.40;;;;;;476082;250;2334;-44
2023/01/16 00:04:44;;;;;;;;;;;21.20;37.40;;;;;;476017;250;1948;-43
2023/01/16 00:06:45;;;;;;;;;;;21.20;37.50;;;;;;476223;250;2138;-43
2023/01/16 00:08:48;;;;;;;;;;;21.20;37.50;;;;;;476059;248;2627;-44
2023/01/16 00:10:48;;;;;;;;;;;21.20;37.50;;;;;;476000;250;2451;-43
2023/01/16 00:12:49;;;;;;;;;;;21.20;37.50;;;;;;476086;250;1657;-44
2023/01/16 00:14:51;;;;;;;;;;;21.20;37.60;;;;;;476060;250;2237;-44
2023/01/16 00:16:52;;;;;;;;;;;21.10;37.50;;;;;;476065;250;2313;-43
2023/01/16 00:18:53;;;;;;;;;;;21.10;37.60;;;;;;476038;248;2141;-44
2023/01/16 00:20:54;;;;;;;;;;;21.10;37.60;;;;;;475959;250;2180;-43
2023/01/16 00:22:56;;;;;;;;;;;21.10;37.60;;;;;;476067;248;2176;-44
2023/01/16 00:24:57;;;;;;;;;;;21.10;37.60;;;;;;475985;250;2042;-44
2023/01/16 00:26:58;;;;;;;;;;;21.00;37.60;;;;;;475980;250;2049;-44
2023/01/16 00:29:01;;;;;;;;;;;21.10;37.60;;;;;;476043;248;2063;-43
2023/01/16 00:31:01;;;;;;;;;;;21.00;37.60;;;;;;475942;248;1669;-43
2023/01/16 00:33:02;;;;;;;;;;;21.00;37.60;;;;;;476010;250;1921;-43
2023/01/16 00:35:04;;;;;;;;;;;21.10;37.70;;;;;;476001;250;1874;-44
2023/01/16 00:37:05;;;;;;;;;;;21.10;37.70;;;;;;476012;250;1831;-44
2023/01/16 00:39:06;;;;;;;;;;;21.10;37.70;;;;;;476033;250;1973;-43
2023/01/16 00:41:08;;;;;;;;;;;21.00;37.70;;;;;;475967;248;2208;-43
2023/01/16 00:43:09;;;;;;;;;;;21.00;37.70;;;;;;475997;250;2234;-43
2023/01/16 00:45:10;;;;;;;;;;;21.00;37.70;;;;;;476040;248;1694;-44
2023/01/16 00:47:12;;;;;;;;;;;21.00;37.70;;;;;;476011;250;2299;-44
2023/01/16 00:49:13;;;;;;;;;;;21.00;37.70;;;;;;476064;248;1824;-44
2023/01/16 00:51:14;;;;;;;;;;;21.00;37.70;;;;;;476025;250;1700;-44
2023/01/16 00:53:16;;;;;;;;;;;21.00;37.80;;;;;;475999;250;1929;-43
2023/01/16 00:55:17;;;;;;;;;;;21.00;37.80;;;;;;475959;250;2083;-44
2023/01/16 00:57:18;;;;;;;;;;;21.00;37.80;;;;;;476066;248;2180;-44
2023/01/16 00:59:20;;;;;;;;;;;21.00;37.80;;;;;;476040;249;2374;-44
2023/01/16 01:01:21;;;;;;;;;;;20.90;37.80;;;;;;476170;250;2203;-44
2023/01/16 01:03:22;;;;;;;;;;;20.90;37.80;;;;;;476039;250;2175;-44
2023/01/16 01:05:24;;;;;;;;;;;20.90;37.80;;;;;;476030;246;2075;-44
2023/01/16 01:07:25;;;;;;;;;;;20.90;37.80;;;;;;475886;250;1891;-44
2023/01/16 01:09:26;;;;;;;;;;;20.90;37.80;;;;;;476141;250;1677;-43
2023/01/16 01:11:28;;;;;;;;;;;20.90;37.80;;;;;;476013;250;1758;-43
2023/01/16 01:13:29;;;;;;;;;;;20.90;37.80;;;;;;476133;250;2096;-43
2023/01/16 01:15:30;;;;;;;;;;;20.90;37.90;;;;;;476167;250;2231;-44
2023/01/16 01:17:32;;;;;;;;;;;20.90;37.90;;;;;;476027;250;2362;-44
2023/01/16 01:19:33;;;;;;;;;;;20.90;37.90;;;;;;476056;250;1688;-43
2023/01/16 01:21:34;;;;;;;;;;;20.80;37.90;;;;;;476088;250;2191;-44
2023/01/16 01:23:36;;;;;;;;;;;20.80;37.90;;;;;;476129;250;1783;-44
2023/01/16 01:25:37;;;;;;;;;;;20.90;37.90;;;;;;476118;248;1681;-44
2023/01/16 01:27:38;;;;;;;;;;;20.90;37.90;;;;;;476115;250;1642;-43
2023/01/16 01:29:39;;;;;;;;;;;20.80;37.90;;;;;;476096;250;2156;-43
2023/01/16 01:31:41;;;;;;;;;;;20.80;37.90;;;;;;475987;250;2179;-44
2023/01/16 01:33:42;;;;;;;;;;;20.80;37.90;;;;;;476116;250;1801;-43
2023/01/16 01:35:43;;;;;;;;;;;20.80;37.90;;;;;;476006;250;2002;-44
2023/01/16 01:37:45;;;;;;;;;;;20.80;37.90;;;;;;476123;250;1631;-44
2023/01/16 01:39:46;;;;;;;;;;;20.80;37.90;;;;;;476068;250;1870;-44
2023/01/16 01:41:47;;;;;;;;;;;20.80;37.90;;;;;;476041;250;2673;-43
2023/01/16 01:43:49;;;;;;;;;;;20.80;38.00;;;;;;476081;248;2171;-44
2023/01/16 01:45:50;;;;;;;;;;;20.80;38.00;;;;;;476019;250;2434;-43
2023/01/16 01:47:54;;;;;;;;;;;20.80;37.90;;;;;;476072;250;2345;-44
2023/01/16 01:49:53;;;;;;;;;;;20.80;37.90;;;;;;475863;250;2583;-43
2023/01/16 01:51:54;;;;;;;;;;;20.80;38.00;;;;;;476062;250;1737;-44
2023/01/16 01:53:56;;;;;;;;;;;20.80;38.00;;;;;;475992;250;1904;-44
2023/01/16 01:55:57;;;;;;;;;;;20.70;38.00;;;;;;476002;250;2446;-43
2023/01/16 01:57:59;;;;;;;;;;;20.80;38.00;;;;;;475982;250;1697;-44
2023/01/16 02:00:00;;;;;;;;;;;20.70;38.00;;;;;;476012;248;1694;-43
2023/01/16 02:02:01;;;;;;;;;;;20.70;38.00;;;;;;476010;250;2191;-44
2023/01/16 02:04:02;;;;;;;;;;;20.90;37.80;;;;;;476004;248;1927;-44
2023/01/16 02:06:04;;;;;;;;;;;21.10;37.40;;;;;;476023;248;2626;-44
2023/01/16 02:08:05;;;;;;;;;;;21.30;37.10;;;;;;475995;250;1708;-43
2023/01/16 02:10:06;;;;;;;;;;;21.50;36.80;;;;;;475997;250;1938;-44
2023/01/16 02:12:08;;;;;;;;;;;21.60;36.40;;;;;;476006;250;1857;-44
2023/01/16 02:14:09;;;;;;;;;;;21.70;36.20;;;;;;476051;250;1775;-44
2023/01/16 02:20:59;;;;;;;;;;;22.00;35.80;;;;;;469552;250;2191;-44
2023/01/16 02:23:00;;;;;;;;;;;22.10;35.70;;;;;;475946;250;1662;-44
2023/01/16 02:25:02;;;;;;;;;;;22.10;35.60;;;;;;475955;250;2952;-44
2023/01/16 02:27:03;;;;;;;;;;;22.20;35.50;;;;;;475876;250;2146;-43
2023/01/16 02:29:04;;;;;;;;;;;22.20;35.40;;;;;;475871;250;2009;-44
2023/01/16 02:31:06;;;;;;;;;;;22.30;35.30;;;;;;475790;250;2115;-44
2023/01/16 02:33:07;;;;;;;;;;;22.30;35.20;;;;;;475975;250;1850;-44
2023/01/16 02:35:08;;;;;;;;;;;22.30;35.20;;;;;;475952;250;2303;-43
2023/01/16 02:37:10;;;;;;;;;;;22.40;35.10;;;;;;475937;250;1683;-44
2023/01/16 02:39:11;;;;;;;;;;;22.40;35.10;;;;;;475869;248;2335;-44
2023/01/16 02:41:12;;;;;;;;;;;22.50;35.10;;;;;;475960;250;2389;-44
2023/01/16 02:43:14;;;;;;;;;;;22.50;35.00;;;;;;476100;250;2594;-44
2023/01/16 02:45:15;;;;;;;;;;;22.50;34.90;;;;;;476003;250;1992;-44
2023/01/16 02:47:16;;;;;;;;;;;22.60;34.90;;;;;;475993;250;2819;-44
2023/01/16 02:49:18;;;;;;;;;;;22.60;34.80;;;;;;475978;250;1909;-44
2023/01/16 02:51:19;;;;;;;;;;;22.60;34.80;;;;;;475990;250;2186;-44
2023/01/16 02:53:20;;;;;;;;;;;22.60;34.70;;;;;;475973;250;1982;-43
2023/01/16 02:55:22;;;;;;;;;;;22.70;34.70;;;;;;475977;248;1692;-44
2023/01/16 02:57:23;;;;;;;;;;;22.70;34.70;;;;;;475974;250;1672;-44
2023/01/16 02:59:24;;;;;;;;;;;22.70;34.60;;;;;;476009;250;1655;-44
2023/01/16 03:01:26;;;;;;;;;;;22.80;34.60;;;;;;476001;248;2211;-44
2023/01/16 03:03:27;;;;;;;;;;;22.80;34.60;;;;;;476148;250;2441;-44
2023/01/16 03:05:28;;;;;;;;;;;22.80;34.50;;;;;;476087;248;1724;-43
2023/01/16 03:07:30;;;;;;;;;;;22.80;34.50;;;;;;475939;250;1693;-44
2023/01/16 03:09:31;;;;;;;;;;;22.80;34.50;;;;;;475959;250;1888;-44
2023/01/16 03:11:32;;;;;;;;;;;22.90;34.50;;;;;;476143;250;1730;-44
2023/01/16 03:13:34;;;;;;;;;;;22.90;34.40;;;;;;475992;248;2210;-44
2023/01/16 03:15:35;;;;;;;;;;;22.90;34.40;;;;;;476126;250;2011;-44
2023/01/16 03:17:36;;;;;;;;;;;22.90;34.40;;;;;;476095;250;1834;-44
2023/01/16 03:19:37;;;;;;;;;;;22.90;34.40;;;;;;476047;250;1712;-44
2023/01/16 03:21:39;;;;;;;;;;;23.00;34.40;;;;;;475970;248;2196;-44
2023/01/16 03:23:41;;;;;;;;;;;23.00;34.30;;;;;;476076;250;2107;-44
2023/01/16 03:25:42;;;;;;;;;;;23.00;34.30;;;;;;476073;250;2184;-44
2023/01/16 03:27:43;;;;;;;;;;;23.00;34.30;;;;;;476066;250;2348;-44
2023/01/16 03:29:44;;;;;;;;;;;23.00;34.20;;;;;;476063;248;1841;-44
2023/01/16 03:31:46;;;;;;;;;;;23.00;34.20;;;;;;476085;250;2921;-44
2023/01/16 03:33:47;;;;;;;;;;;23.10;34.30;;;;;;476001;250;1911;-44
2023/01/16 03:35:48;;;;;;;;;;;23.10;34.20;;;;;;476015;250;2129;-44
2023/01/16 03:37:50;;;;;;;;;;;23.10;34.20;;;;;;476056;248;1717;-44
2023/01/16 03:39:51;;;;;;;;;;;23.10;34.20;;;;;;476063;250;2031;-44
2023/01/16 03:41:52;;;;;;;;;;;23.10;34.20;;;;;;475958;248;2340;-44
2023/01/16 03:43:54;;;;;;;;;;;23.10;34.10;;;;;;476096;250;1859;-44
2023/01/16 03:45:55;;;;;;;;;;;23.20;34.20;;;;;;476071;250;2089;-44
2023/01/16 03:47:57;;;;;;;;;;;23.10;34.10;;;;;;476050;250;2517;-44
2023/01/16 03:49:58;;;;;;;;;;;23.20;34.10;;;;;;475979;250;1975;-44
2023/01/16 03:51:59;;;;;;;;;;;23.20;34.10;;;;;;476062;250;1864;-44
2023/01/16 03:54:00;;;;;;;;;;;23.20;34.00;;;;;;476041;250;2073;-44
2023/01/16 03:56:02;;;;;;;;;;;23.20;34.10;;;;;;476046;250;2056;-44
2023/01/16 03:58:03;;;;;;;;;;;23.20;34.00;;;;;;476067;250;2106;-44
2023/01/16 04:00:04;;;;;;;;;;;23.20;34.00;;;;;;476095;248;2336;-44
2023/01/16 04:02:06;;;;;;;;;;;23.20;34.00;;;;;;475972;250;2215;-44
2023/01/16 04:04:07;;;;;;;;;;;23.30;34.00;;;;;;476025;250;1919;-44
2023/01/16 04:06:09;;;;;;;;;;;23.30;34.00;;;;;;476080;248;1763;-44
2023/01/16 04:08:10;;;;;;;;;;;23.30;34.00;;;;;;476020;250;2054;-44
2023/01/16 04:10:11;;;;;;;;;;;23.30;33.90;;;;;;476033;250;1896;-44
2023/01/16 04:12:14;;;;;;;;;;;23.30;34.00;;;;;;476134;246;1660;-44
2023/01/16 04:14:14;;;;;;;;;;;23.30;33.90;;;;;;475997;250;2225;-44
2023/01/16 04:16:17;;;;;;;;;;;23.30;33.90;;;;;;475946;248;2121;-44
2023/01/16 04:18:17;;;;;;;;;;;23.30;33.90;;;;;;474672;250;1904;-44
2023/01/16 04:20:19;;;;;;;;;;;23.40;34.00;;;;;;475074;250;2194;-44
2023/01/16 04:22:20;;;;;;;;;;;23.30;33.90;;;;;;474808;250;2211;-44
2023/01/16 04:24:21;;;;;;;;;;;23.40;34.00;;;;;;475781;250;1759;-44
2023/01/16 04:26:22;;;;;;;;;;;23.40;33.90;;;;;;476019;248;1738;-44
2023/01/16 04:28:24;;;;;;;;;;;23.40;33.90;;;;;;476007;250;2095;-44
2023/01/16 04:30:25;;;;;;;;;;;23.40;33.90;;;;;;476209;250;1744;-44
2023/01/16 04:32:26;;;;;;;;;;;23.40;33.90;;;;;;476038;250;2326;-44
2023/01/16 04:34:28;;;;;;;;;;;23.40;33.90;;;;;;476148;250;2089;-44
2023/01/16 04:36:30;;;;;;;;;;;23.40;33.80;;;;;;476124;248;2152;-44
2023/01/16 04:38:30;;;;;;;;;;;23.40;33.80;;;;;;476062;248;2263;-44
2023/01/16 04:40:32;;;;;;;;;;;23.40;33.80;;;;;;476180;250;2670;-43
2023/01/16 04:42:33;;;;;;;;;;;23.40;33.80;;;;;;476136;248;2216;-44
2023/01/16 04:44:34;;;;;;;;;;;23.40;33.80;;;;;;476050;250;3046;-44
2023/01/16 04:46:37;;;;;;;;;;;23.50;33.90;;;;;;476140;250;1856;-43
2023/01/16 04:48:37;;;;;;;;;;;23.50;33.80;;;;;;475868;250;2385;-44
2023/01/16 04:50:38;;;;;;;;;;;23.50;33.80;;;;;;476135;248;1721;-44
2023/01/16 04:52:40;;;;;;;;;;;23.50;33.80;;;;;;476034;248;1663;-44
2023/01/16 04:54:41;;;;;;;;;;;23.50;33.80;;;;;;476348;250;1862;-43
2023/01/16 04:56:43;;;;;;;;;;;23.50;33.80;;;;;;476063;248;2710;-44
2023/01/16 04:58:44;;;;;;;;;;;23.50;33.80;;;;;;476114;250;2632;-44
2023/01/16 05:00:45;;;;;;;;;;;23.50;33.80;;;;;;476113;250;1983;-43
2023/01/16 05:02:47;;;;;;;;;;;23.50;33.80;;;;;;476085;250;2156;-44
2023/01/16 05:04:48;;;;;;;;;;;23.50;33.80;;;;;;476025;250;2054;-44
2023/01/16 05:06:49;;;;;;;;;;;23.50;33.70;;;;;;476058;250;1977;-44
2023/01/16 05:08:51;;;;;;;;;;;23.50;33.80;;;;;;476072;246;2112;-44
2023/01/16 05:10:52;;;;;;;;;;;23.60;33.70;;;;;;476006;250;1729;-44
2023/01/16 05:12:53;;;;;;;;;;;23.60;33.80;;;;;;476133;248;1848;-44
2023/01/16 05:14:55;;;;;;;;;;;23.50;33.90;;;;;;476023;250;1826;-44
2023/01/16 05:16:56;;;;;;;;;;;23.30;34.10;;;;;;476139;250;1989;-44
2023/01/16 05:18:58;;;;;;;;;;;23.10;34.50;;;;;;476081;250;2141;-44
2023/01/16 05:20:59;;;;;;;;;;;22.80;34.90;;;;;;475865;250;1661;-44
2023/01/16 05:23:00;;;;;;;;;;;22.60;35.30;;;;;;475868;250;2195;-44
2023/01/16 05:25:01;;;;;;;;;;;22.40;35.50;;;;;;476011;250;1779;-44
2023/01/16 05:27:03;;;;;;;;;;;22.30;35.70;;;;;;475825;250;1703;-44
2023/01/16 05:29:04;;;;;;;;;;;22.20;35.90;;;;;;475838;250;2002;-43
2023/01/16 05:31:05;;;;;;;;;;;22.10;36.10;;;;;;475815;248;2351;-43
2023/01/16 05:33:07;;;;;;;;;;;22.00;36.20;;;;;;475988;250;1712;-43
2023/01/16 05:35:08;;;;;;;;;;;22.00;36.30;;;;;;475896;250;1586;-44
2023/01/16 05:37:09;;;;;;;;;;;21.90;36.40;;;;;;475946;250;3020;-43
2023/01/16 05:39:11;;;;;;;;;;;21.90;36.50;;;;;;475985;250;2194;-44
2023/01/16 05:41:12;;;;;;;;;;;21.80;36.70;;;;;;475959;250;2250;-43
2023/01/16 05:43:13;;;;;;;;;;;21.70;36.70;;;;;;475995;250;2210;-43
2023/01/16 05:45:15;;;;;;;;;;;21.70;36.80;;;;;;475957;250;1702;-43
2023/01/16 05:47:16;;;;;;;;;;;21.70;36.80;;;;;;476157;250;2987;-44
2023/01/16 05:49:18;;;;;;;;;;;21.60;36.80;;;;;;475950;250;2009;-44
2023/01/16 05:51:19;;;;;;;;;;;21.60;36.90;;;;;;475966;250;1575;-44
2023/01/16 05:53:20;;;;;;;;;;;21.60;37.00;;;;;;476017;250;1714;-43
2023/01/16 05:55:22;;;;;;;;;;;21.50;37.10;;;;;;475812;250;2506;-44
2023/01/16 05:57:23;;;;;;;;;;;21.50;37.10;;;;;;475949;250;1691;-43
2023/01/16 05:59:24;;;;;;;;;;;21.40;37.20;;;;;;476070;250;1734;-43
2023/01/16 06:01:26;;;;;;;;;;;21.40;37.20;;;;;;475997;250;1819;-43
2023/01/16 06:03:27;;;;;;;;;;;21.30;37.20;;;;;;475944;250;2211;-43
2023/01/16 06:05:28;;;;;;;;;;;21.40;37.30;;;;;;475995;250;1606;-43
2023/01/16 06:07:30;;;;;;;;;;;21.30;37.40;;;;;;475934;248;2131;-43
2023/01/16 06:09:31;;;;;;;;;;;21.30;37.40;;;;;;475922;248;1737;-43
2023/01/16 06:11:32;;;;;;;;;;;21.30;37.40;;;;;;475860;248;1804;-44
2023/01/16 06:13:34;;;;;;;;;;;21.30;37.50;;;;;;475956;248;2051;-44
2023/01/16 06:15:35;;;;;;;;;;;21.20;37.50;;;;;;476071;248;1836;-44
2023/01/16 06:17:36;;;;;;;;;;;21.20;37.60;;;;;;476097;250;2408;-43
2023/01/16 06:19:38;;;;;;;;;;;21.20;37.60;;;;;;476116;246;1818;-44
2023/01/16 06:21:39;;;;;;;;;;;21.20;37.60;;;;;;475972;250;2172;-44
2023/01/16 06:23:40;;;;;;;;;;;21.10;37.60;;;;;;475930;250;2378;-43
2023/01/16 06:25:42;;;;;;;;;;;21.10;37.60;;;;;;476067;250;2076;-44
2023/01/16 06:27:43;;;;;;;;;;;21.10;37.70;;;;;;475973;250;2186;-44
2023/01/16 06:29:44;;;;;;;;;;;21.10;37.70;;;;;;475833;250;2159;-44
2023/01/16 06:31:46;;;;;;;;;;;21.10;37.70;;;;;;476012;250;2474;-44
2023/01/16 06:33:47;;;;;;;;;;;21.00;37.60;;;;;;475947;250;1906;-43
2023/01/16 06:35:49;;;;;;;;;;;21.10;37.80;;;;;;475948;250;2001;-44
2023/01/16 06:37:50;;;;;;;;;;;21.00;37.80;;;;;;475886;248;1730;-43
2023/01/16 06:39:52;;;;;;;;;;;21.00;37.80;;;;;;475942;250;2382;-43
2023/01/16 06:41:53;;;;;;;;;;;21.00;37.80;;;;;;475847;250;1802;-44
2023/01/16 06:43:54;;;;;;;;;;;21.00;37.90;;;;;;475924;248;2243;-43
2023/01/16 06:45:56;;;;;;;;;;;21.00;37.90;;;;;;475837;250;1953;-44
2023/01/16 06:47:57;;;;;;;;;;;21.00;37.90;;;;;;475831;248;1678;-43
2023/01/16 06:49:58;;;;;;;;;;;21.00;37.90;;;;;;475941;250;2194;-43
2023/01/16 06:52:00;;;;;;;;;;;20.90;37.90;;;;;;475773;248;1887;-43
2023/01/16 06:54:02;;;;;;;;;;;20.90;38.00;;;;;;475930;250;1701;-43
2023/01/16 06:56:03;;;;;;;;;;;20.90;38.00;;;;;;475779;250;1823;-44
2023/01/16 06:58:04;;;;;;;;;;;20.80;37.90;;;;;;475827;250;2165;-44
2023/01/16 07:00:06;;;;;;;;;;;20.80;38.00;;;;;;475891;248;1728;-44
2023/01/16 07:02:07;;;;;;;;;;;20.80;38.00;;;;;;475732;250;1925;-43
2023/01/16 07:04:09;;;;;;;;;;;20.80;38.00;;;;;;475829;248;2212;-44
2023/01/16 07:06:12;;;;;;;;;;;20.80;38.00;;;;;;475786;250;2128;-43
2023/01/16 07:08:11;;;;;;;;;;;20.90;38.00;;;;;;475746;250;2094;-44
2023/01/16 07:10:12;;;;;;;;;;;20.90;38.00;;;;;;475975;248;2239;-44
2023/01/16 07:12:14;;;;;;;;;;;20.80;37.90;;;;;;475718;248;2225;-44
2023/01/16 07:23:36;;;;;;;;;;;20.80;37.80;;;;;;475911;250;2213;-43
2023/01/16 07:25:38;;;;;;;;;;;20.90;37.50;;;;;;475986;250;1928;-44
2023/01/16 07:27:39;;;;;;;;;;;21.20;36.80;;;;;;475738;246;1552;-43
2023/01/16 07:29:40;;;;;;;;;;;21.40;36.40;;;;;;475958;248;2137;-44
2023/01/16 07:31:42;;;;;;;;;;;21.60;36.10;;;;;;475726;248;1691;-44
2023/01/16 07:33:43;;;;;;;;;;;21.80;35.90;;;;;;475853;250;2266;-44
2023/01/16 07:35:45;;;;;;;;;;;21.90;35.60;;;;;;475928;248;1711;-44
2023/01/16 07:37:46;;;;;;;;;;;22.00;35.40;;;;;;475500;250;2174;-44
2023/01/16 07:39:47;;;;;;;;;;;22.10;35.20;;;;;;475783;250;1983;-44
2023/01/16 07:41:50;;;;;;;;;;;22.10;35.00;;;;;;475680;248;2471;-44
2023/01/16 07:43:50;;;;;;;;;;;22.20;34.90;;;;;;475547;250;2191;-44
2023/01/16 07:45:52;;;;;;;;;;;22.30;34.80;;;;;;475717;248;2312;-44
2023/01/16 07:47:53;;;;;;;;;;;22.30;34.70;;;;;;475774;248;2915;-44
2023/01/16 07:49:56;;;;;;;;;;;22.40;34.60;;;;;;475907;250;2437;-44
2023/01/16 07:51:56;;;;;;;;;;;22.40;34.50;;;;;;475663;250;2186;-44
2023/01/16 07:53:58;;;;;;;;;;;22.50;34.30;;;;;;475732;248;1674;-44
2023/01/16 07:55:59;;;;;;;;;;;22.50;34.30;;;;;;475789;248;2055;-44
2023/01/16 07:58:00;;;;;;;;;;;22.60;34.30;;;;;;475611;250;1685;-44
2023/01/16 08:00:01;;;;;;;;;;;22.60;34.20;;;;;;475889;248;2164;-44
2023/01/16 08:02:03;;;;;;;;;;;22.70;34.10;;;;;;475456;250;1968;-44
2023/01/16 08:04:04;;;;;;;;;;;22.70;34.10;;;;;;475677;250;2192;-44
2023/01/16 08:06:05;;;;;;;;;;;22.70;34.00;;;;;;475694;250;1937;-44
2023/01/16 08:08:07;;;;;;;;;;;22.80;34.00;;;;;;475665;248;1936;-44
2023/01/16 08:10:08;;;;;;;;;;;22.80;33.90;;;;;;475827;248;2412;-44
2023/01/16 08:12:09;;;;;;;;;;;22.80;33.80;;;;;;475693;250;1674;-44
2023/01/16 08:14:11;;;;;;;;;;;22.90;33.80;;;;;;475640;250;1737;-43
2023/01/16 08:16:12;;;;;;;;;;;22.90;33.70;;;;;;475585;250;1708;-44
2023/01/16 08:18:14;;;;;;;;;;;23.00;33.60;;;;;;475286;250;1486;-44
2023/01/16 08:20:15;;;;;;;;;;;23.00;33.50;;;;;;475203;250;1984;-43
2023/01/16 08:22:16;;;;;;;;;;;23.10;33.50;;;;;;475421;250;2065;-44
2023/01/16 08:24:18;;;;;;;;;;;23.10;33.50;;;;;;475295;250;2317;-44
2023/01/16 08:26:19;;;;;;;;;;;23.20;33.50;;;;;;475552;250;2433;-44
2023/01/16 08:28:20;;;;;;;;;;;23.20;33.50;;;;;;475720;250;1953;-44
2023/01/16 08:30:21;;;;;;;;;;;23.20;33.30;;;;;;475649;248;1876;-44
2023/01/16 08:32:23;;;;;;;;;;;23.30;33.30;;;;;;475723;250;1504;-44
2023/01/16 08:34:24;;;;;;;;;;;23.30;33.30;;;;;;475755;250;2479;-44
2023/01/16 08:36:25;;;;;;;;;;;23.30;33.30;;;;;;475619;250;1917;-43
2023/01/16 08:38:27;;;;;;;;;;;23.40;33.20;;;;;;475524;250;1981;-44
2023/01/16 08:40:28;;;;;;;;;;;23.40;33.20;;;;;;475739;250;2014;-44
2023/01/16 08:51:47;;;;;;;;;;;23.50;33.00;;;;;;475623;250;1717;-44
2023/01/16 08:53:48;;;;;;;;;;;23.60;33.00;;;;;;475755;248;1759;-44
2023/01/16 08:55:49;;;;;;;;;;;23.70;32.90;;;;;;475577;250;1751;-44
2023/01/16 08:57:51;;;;;;;;;;;23.60;32.70;;;;;;475623;248;1817;-43
2023/01/16 08:59:52;;;;;;;;;;;23.50;32.90;;;;;;475683;250;2280;-44
2023/01/16 09:01:53;;;;;;;;;;;23.30;33.10;;;;;;474548;250;1700;-43
2023/01/16 09:03:55;;;;;;;;;;;23.10;33.40;;;;;;475572;250;2648;-44
2023/01/16 09:05:56;;;;;;;;;;;22.90;33.80;;;;;;475577;250;1935;-44
2023/01/16 09:07:57;;;;;;;;;;;22.70;34.10;;;;;;475623;250;1687;-43
2023/01/16 09:09:59;;;;;;;;;;;22.50;34.30;;;;;;475751;250;2169;-44
2023/01/16 09:14:19;;;;;;;;;;;22.30;34.70;;;;;;475724;250;1707;-44
2023/01/16 09:16:21;;;;;;;;;;;22.20;34.80;;;;;;475516;248;1982;-43
2023/01/16 09:18:22;;;;;;;;;;;22.20;34.90;;;;;;475811;248;1986;-44
2023/01/16 09:20:23;;;;;;;;;;;22.10;35.00;;;;;;475794;250;1838;-43
2023/01/16 09:22:25;;;;;;;;;;;22.10;35.10;;;;;;475683;250;1641;-44
2023/01/16 09:24:26;;;;;;;;;;;22.00;35.10;;;;;;475742;248;2188;-44
2023/01/16 09:26:27;;;;;;;;;;;22.00;35.30;;;;;;475531;248;1961;-44
2023/01/16 09:28:29;;;;;;;;;;;21.90;35.30;;;;;;475485;248;1710;-43
2023/01/16 09:30:30;;;;;;;;;;;21.90;35.50;;;;;;475767;246;2014;-43
2023/01/16 09:32:33;;;;;;;;;;;21.90;35.50;;;;;;475472;250;1924;-43
2023/01/16 09:34:33;;;;;;;;;;;21.80;35.50;;;;;;475376;250;2356;-44
2023/01/16 09:36:34;;;;;;;;;;;21.80;35.60;;;;;;475460;250;1739;-43
2023/01/16 09:38:35;;;;;;;;;;;21.80;35.60;;;;;;475400;249;2065;-43
2023/01/16 09:40:36;;;;;;;;;;;21.80;35.50;;;;;;475584;248;2215;-43
2023/01/16 09:44:57;;;;;;;;;;;21.70;35.70;;;;;;475388;250;2125;-44
2023/01/16 09:46:58;;;;;;;;;;;21.70;35.80;;;;;;475413;250;1539;-44
2023/01/16 09:49:00;;;;;;;;;;;21.70;35.80;;;;;;475474;250;1989;-44
2023/01/16 09:51:01;;;;;;;;;;;21.70;35.90;;;;;;475492;248;1892;-44
2023/01/16 10:00:08;;;;;;;;;;;21.60;36.10;;;;;;464396;248;1905;-44
2023/01/16 10:02:09;;;;;;;;;;;21.60;36.20;;;;;;475503;247;2147;-43
2023/01/16 10:04:10;;;;;;;;;;;21.60;36.30;;;;;;475754;249;2196;-43
2023/01/16 10:06:11;;;;;;;;;;;21.60;36.20;;;;;;475579;250;1881;-44
2023/01/16 10:08:17;;;;;;;;;;;21.60;36.10;;;;;;475647;250;1483;-43
2023/01/16 10:10:14;;;;;;;;;;;21.60;36.10;;;;;;475422;250;2094;-43
2023/01/16 10:12:16;;;;;;;;;;;21.50;36.10;;;;;;475742;250;1778;-43
2023/01/16 10:14:17;;;;;;;;;;;21.50;36.00;;;;;;475704;250;2597;-43
2023/01/16 10:16:18;;;;;;;;;;;21.60;36.10;;;;;;475715;250;2179;-44
2023/01/16 10:18:20;;;;;;;;;;;21.60;36.20;;;;;;475693;248;1686;-44
2023/01/16 10:20:21;;;;;;;;;;;21.50;36.20;;;;;;475727;250;2046;-44
2023/01/16 10:22:23;;;;;;;;;;;21.50;36.20;;;;;;475755;248;1713;-44
2023/01/16 10:24:24;;;;;;;;;;;21.50;36.30;;;;;;475765;250;2239;-44
2023/01/16 10:26:25;;;;;;;;;;;21.50;36.30;;;;;;475563;250;1706;-44
2023/01/16 10:28:27;;;;;;;;;;;21.50;36.30;;;;;;475813;248;1788;-44
2023/01/16 10:30:28;;;;;;;;;;;21.50;36.30;;;;;;475921;248;2228;-44
2023/01/16 10:32:29;;;;;;;;;;;21.40;36.30;;;;;;475764;250;1709;-44
2023/01/16 10:34:31;;;;;;;;;;;21.40;36.50;;;;;;475705;250;1835;-43
2023/01/16 10:36:32;;;;;;;;;;;21.50;36.30;;;;;;475663;248;1720;-43
2023/01/16 10:38:39;;;;;;;;;;;21.40;36.80;;;;;;475677;248;2192;-44
2023/01/16 10:40:41;;;;;;;;;;;21.50;36.40;;;;;;475797;250;1933;-44
2023/01/16 10:49:40;;;;;;;;;;;21.50;36.50;;;;;;475768;250;1654;-43
2023/01/16 10:51:42;;;;;;;;;;;21.40;36.40;;;;;;475848;250;1689;-43
2023/01/16 10:53:43;;;;;;;;;;;21.40;36.40;;;;;;475740;250;1718;-43
2023/01/16 10:55:44;;;;;;;;;;;21.40;37.10;;;;;;475689;248;1968;-44
2023/01/16 10:57:46;;;;;;;;;;;21.50;36.70;;;;;;475785;250;1687;-44
2023/01/16 10:59:47;;;;;;;;;;;21.50;37.00;;;;;;475321;250;1721;-44
2023/01/16 11:01:48;;;;;;;;;;;21.50;36.60;;;;;;475548;250;2196;-43
2023/01/16 11:03:49;;;;;;;;;;;21.50;36.40;;;;;;475647;250;2203;-44
2023/01/16 11:05:52;;;;;;;;;;;21.40;36.40;;;;;;475700;250;2445;-43
2023/01/16 11:07:52;;;;;;;;;;;21.40;36.50;;;;;;475550;248;1940;-44
2023/01/16 11:09:54;;;;;;;;;;;21.40;36.40;;;;;;475754;250;2054;-44
2023/01/16 11:18:53;;;;;;;;;;;21.30;36.30;;;;;;475630;248;1579;-43
2023/01/16 11:20:54;;;;;;;;;;;21.30;36.20;;;;;;475711;250;1713;-44
2023/01/16 11:22:57;;;;;;;;;;;21.40;36.30;;;;;;475712;250;1539;-44
2023/01/16 11:25:00;;;;;;;;;;;21.40;36.20;;;;;;475690;250;2203;-43
2023/01/16 11:27:00;;;;;;;;;;;21.40;36.10;;;;;;475640;248;1713;-44
2023/01/16 11:29:02;;;;;;;;;;;21.40;36.10;;;;;;475523;250;1564;-44
2023/01/16 11:31:03;;;;;;;;;;;21.40;36.10;;;;;;475592;248;1967;-43
2023/01/16 11:33:07;;;;;;;;;;;21.40;36.10;;;;;;475603;248;2072;-44
2023/01/16 11:35:06;;;;;;;;;;;21.30;36.00;;;;;;475399;250;1929;-44
2023/01/16 11:37:08;;;;;;;;;;;21.40;36.10;;;;;;475726;248;2114;-43
2023/01/16 11:39:09;;;;;;;;;;;21.30;36.00;;;;;;475626;250;2392;-44
2023/01/16 11:41:10;;;;;;;;;;;21.30;36.00;;;;;;474759;250;1606;-43
2023/01/16 11:47:50;;;;;;;;;;;21.40;36.00;;;;;;475516;250;2115;-44
2023/01/16 11:49:51;;;;;;;;;;;21.40;36.00;;;;;;475474;248;1752;-44
2023/01/16 11:51:53;;;;;;;;;;;21.40;35.80;;;;;;475622;250;1552;-44
2023/01/16 11:53:55;;;;;;;;;;;21.40;35.90;;;;;;475521;250;1638;-44
2023/01/16 11:55:56;;;;;;;;;;;21.40;35.90;;;;;;475621;250;2225;-43
2023/01/16 11:57:57;;;;;;;;;;;21.40;36.00;;;;;;475496;250;1858;-44
2023/01/16 12:00:00;;;;;;;;;;;21.40;36.00;;;;;;475486;250;1731;-43
2023/01/16 12:02:19;;;;;;;;;;;21.40;36.00;;;;;;475411;250;2215;-43
2023/01/16 12:04:20;;;;;;;;;;;21.40;35.90;;;;;;475588;250;2196;-44
2023/01/16 12:06:22;;;;;;;;;;;21.50;35.80;;;;;;475470;250;2015;-44
2023/01/16 12:08:23;;;;;;;;;;;21.60;35.60;;;;;;475562;250;1941;-43
2023/01/16 12:10:24;;;;;;;;;;;21.70;35.50;;;;;;475876;250;2017;-44
2023/01/16 12:14:45;;;;;;;;;;;21.90;35.30;;;;;;475594;250;1628;-44
2023/01/16 12:16:46;;;;;;;;;;;21.90;35.10;;;;;;475447;248;1943;-44
2023/01/16 12:18:47;;;;;;;;;;;22.00;35.10;;;;;;475551;250;2250;-44
2023/01/16 12:20:49;;;;;;;;;;;22.00;34.90;;;;;;475692;250;1778;-44
2023/01/16 12:22:50;;;;;;;;;;;22.00;34.80;;;;;;475553;250;1713;-43
2023/01/16 12:24:51;;;;;;;;;;;22.00;34.80;;;;;;475480;250;2287;-44
2023/01/16 12:26:53;;;;;;;;;;;22.00;34.80;;;;;;475609;250;2109;-44
2023/01/16 12:28:54;;;;;;;;;;;22.00;34.70;;;;;;475582;250;2322;-44
2023/01/16 12:31:20;;;;;;;;;;;22.00;34.70;;;;;;475452;248;2015;-43
2023/01/16 12:33:21;;;;;;;;;;;22.00;34.70;;;;;;474978;250;1970;-44
2023/01/16 12:35:15;;;;;;;;;;;22.00;34.70;;;;;;474987;250;2170;-44
2023/01/16 12:37:17;;;;;;;;;;;22.00;34.70;;;;;;475400;250;2790;-43
2023/01/16 12:39:19;;;;;;;;;;;22.00;34.70;;;;;;475577;250;1649;-44
2023/01/16 12:43:39;;;;;;;;;;;22.10;34.70;;;;;;475689;250;2041;-44
2023/01/16 12:45:40;;;;;;;;;;;22.00;34.70;;;;;;475649;248;2203;-44
2023/01/16 12:47:41;;;;;;;;;;;22.00;34.70;;;;;;475559;250;2494;-43
2023/01/16 12:49:43;;;;;;;;;;;22.00;34.60;;;;;;475496;250;1823;-44
2023/01/16 12:51:44;;;;;;;;;;;22.00;34.70;;;;;;475549;250;1866;-44
2023/01/16 12:53:45;;;;;;;;;;;22.00;34.70;;;;;;475615;250;2300;-44
2023/01/16 12:55:47;;;;;;;;;;;22.00;34.70;;;;;;475599;250;1502;-44